Terminal Aerodrome Forecast
Issued by NWS

Home | Current Version | Previous Version | Text Only | Print | Product List | Glossary On
Versions: 1 2 3 4 5 6 7 8 9 10 11 12 13 14 15 16
000
FTUS41 KCAR 061724
TAFHUL
TAF
KHUL 061724Z 0618/0718 36008KT P6SM SKC
     FM062300 VRB03KT P6SM SKC
     FM070700 14004KT P6SM BKN009
     FM071200 12006KT P6SM BKN015
     FM071500 14006KT P6SM BKN035=

USA.gov is the U.S. government's official web portal to all federal, state and local government web resources and services.